sensor_id;sensor_type;location;lat;lon;timestamp;P1;durP1;ratioP1;P2;durP2;ratioP2
71941;SDS011;59997;53.300;-6.260;2023-01-16T00:01:03;35.13;;;11.73;;
71941;SDS011;59997;53.300;-6.260;2023-01-16T00:03:28;32.70;;;10.73;;
71941;SDS011;59997;53.300;-6.260;2023-01-16T00:05:54;34.57;;;10.97;;
71941;SDS011;59997;53.300;-6.260;2023-01-16T00:08:19;32.58;;;10.68;;
71941;SDS011;59997;53.300;-6.260;2023-01-16T00:10:45;33.63;;;11.55;;
71941;SDS011;59997;53.300;-6.260;2023-01-16T00:13:11;33.10;;;10.63;;
71941;SDS011;59997;53.300;-6.260;2023-01-16T00:15:38;34.28;;;11.38;;
71941;SDS011;59997;53.300;-6.260;2023-01-16T00:18:08;29.27;;;10.60;;
71941;SDS011;59997;53.300;-6.260;2023-01-16T00:20:33;31.13;;;10.73;;
71941;SDS011;59997;53.300;-6.260;2023-01-16T00:22:59;24.37;;;9.37;;
71941;SDS011;59997;53.300;-6.260;2023-01-16T00:25:24;23.77;;;8.77;;
71941;SDS011;59997;53.300;-6.260;2023-01-16T00:27:50;23.95;;;9.65;;
71941;SDS011;59997;53.300;-6.260;2023-01-16T00:30:15;31.33;;;10.55;;
71941;SDS011;59997;53.300;-6.260;2023-01-16T00:32:41;24.43;;;9.43;;
71941;SDS011;59997;53.300;-6.260;2023-01-16T00:35:06;26.60;;;9.37;;
71941;SDS011;59997;53.300;-6.260;2023-01-16T00:37:32;20.90;;;8.48;;
71941;SDS011;59997;53.300;-6.260;2023-01-16T00:39:57;19.07;;;7.47;;
71941;SDS011;59997;53.300;-6.260;2023-01-16T00:42:23;18.63;;;8.40;;
71941;SDS011;59997;53.300;-6.260;2023-01-16T00:44:48;19.33;;;6.95;;
71941;SDS011;59997;53.300;-6.260;2023-01-16T00:47:14;21.10;;;7.43;;
71941;SDS011;59997;53.300;-6.260;2023-01-16T00:49:39;23.27;;;7.43;;
71941;SDS011;59997;53.300;-6.260;2023-01-16T00:52:05;20.00;;;7.30;;
71941;SDS011;59997;53.300;-6.260;2023-01-16T00:54:30;20.55;;;7.15;;
71941;SDS011;59997;53.300;-6.260;2023-01-16T00:56:56;19.53;;;6.50;;
71941;SDS011;59997;53.300;-6.260;2023-01-16T00:59:21;18.80;;;6.45;;
71941;SDS011;59997;53.300;-6.260;2023-01-16T01:01:47;21.03;;;7.70;;
71941;SDS011;59997;53.300;-6.260;2023-01-16T01:04:12;22.17;;;8.10;;
71941;SDS011;59997;53.300;-6.260;2023-01-16T01:06:38;19.67;;;8.17;;
71941;SDS011;59997;53.300;-6.260;2023-01-16T01:09:04;24.75;;;7.97;;
71941;SDS011;59997;53.300;-6.260;2023-01-16T01:11:29;17.55;;;7.15;;
71941;SDS011;59997;53.300;-6.260;2023-01-16T01:13:55;22.35;;;6.75;;
71941;SDS011;59997;53.300;-6.260;2023-01-16T01:16:21;19.00;;;7.53;;
71941;SDS011;59997;53.300;-6.260;2023-01-16T01:18:46;18.95;;;6.72;;
71941;SDS011;59997;53.300;-6.260;2023-01-16T01:21:12;20.50;;;7.30;;
71941;SDS011;59997;53.300;-6.260;2023-01-16T01:23:37;16.50;;;5.47;;
71941;SDS011;59997;53.300;-6.260;2023-01-16T01:26:07;16.37;;;6.27;;
71941;SDS011;59997;53.300;-6.260;2023-01-16T01:28:37;19.40;;;6.68;;
71941;SDS011;59997;53.300;-6.260;2023-01-16T01:31:06;20.83;;;7.22;;
71941;SDS011;59997;53.300;-6.260;2023-01-16T01:33:34;20.07;;;5.83;;
71941;SDS011;59997;53.300;-6.260;2023-01-16T01:35:59;18.48;;;6.18;;
71941;SDS011;59997;53.300;-6.260;2023-01-16T01:38:25;17.03;;;5.83;;
71941;SDS011;59997;53.300;-6.260;2023-01-16T01:40:51;11.57;;;4.13;;
71941;SDS011;59997;53.300;-6.260;2023-01-16T01:43:16;18.33;;;5.03;;
71941;SDS011;59997;53.300;-6.260;2023-01-16T01:45:43;13.30;;;4.53;;
71941;SDS011;59997;53.300;-6.260;2023-01-16T01:50:59;14.60;;;4.18;;
71941;SDS011;59997;53.300;-6.260;2023-01-16T01:53:29;16.33;;;5.50;;
71941;SDS011;59997;53.300;-6.260;2023-01-16T01:56:41;16.92;;;5.10;;
71941;SDS011;59997;53.300;-6.260;2023-01-16T01:58:51;16.58;;;5.10;;
71941;SDS011;59997;53.300;-6.260;2023-01-16T02:01:21;20.30;;;6.20;;
71941;SDS011;59997;53.300;-6.260;2023-01-16T02:03:57;16.52;;;5.78;;
71941;SDS011;59997;53.300;-6.260;2023-01-16T02:06:28;15.48;;;5.72;;
71941;SDS011;59997;53.300;-6.260;2023-01-16T02:09:00;24.15;;;5.70;;
71941;SDS011;59997;53.300;-6.260;2023-01-16T02:11:31;15.73;;;4.57;;
71941;SDS011;59997;53.300;-6.260;2023-01-16T02:14:11;13.98;;;4.25;;
71941;SDS011;59997;53.300;-6.260;2023-01-16T02:16:38;16.05;;;4.95;;
71941;SDS011;59997;53.300;-6.260;2023-01-16T02:44:17;7.75;;;2.17;;
71941;SDS011;59997;53.300;-6.260;2023-01-16T02:49:36;13.73;;;3.60;;
71941;SDS011;59997;53.300;-6.260;2023-01-16T02:55:20;8.90;;;2.15;;
71941;SDS011;59997;53.300;-6.260;2023-01-16T02:57:24;12.30;;;2.67;;
71941;SDS011;59997;53.300;-6.260;2023-01-16T02:59:54;10.10;;;2.25;;
71941;SDS011;59997;53.300;-6.260;2023-01-16T03:02:20;8.43;;;2.70;;
71941;SDS011;59997;53.300;-6.260;2023-01-16T03:04:47;7.53;;;2.05;;
71941;SDS011;59997;53.300;-6.260;2023-01-16T03:09:48;6.72;;;1.70;;
71941;SDS011;59997;53.300;-6.260;2023-01-16T03:20:39;7.07;;;1.30;;
71941;SDS011;59997;53.300;-6.260;2023-01-16T03:26:14;6.07;;;1.35;;
71941;SDS011;59997;53.300;-6.260;2023-01-16T03:28:44;5.85;;;1.40;;
71941;SDS011;59997;53.300;-6.260;2023-01-16T03:34:01;5.82;;;1.30;;
71941;SDS011;59997;53.300;-6.260;2023-01-16T03:36:42;4.22;;;0.90;;
71941;SDS011;59997;53.300;-6.260;2023-01-16T03:39:14;7.03;;;1.20;;
71941;SDS011;59997;53.300;-6.260;2023-01-16T03:41:43;5.30;;;1.15;;
71941;SDS011;59997;53.300;-6.260;2023-01-16T03:44:14;3.90;;;0.63;;
71941;SDS011;59997;53.300;-6.260;2023-01-16T03:46:50;5.15;;;1.02;;
71941;SDS011;59997;53.300;-6.260;2023-01-16T03:49:20;4.20;;;0.68;;
71941;SDS011;59997;53.300;-6.260;2023-01-16T03:51:51;5.85;;;1.35;;
71941;SDS011;59997;53.300;-6.260;2023-01-16T03:54:28;5.10;;;1.10;;
71941;SDS011;59997;53.300;-6.260;2023-01-16T03:59:49;5.45;;;1.10;;
71941;SDS011;59997;53.300;-6.260;2023-01-16T04:02:18;5.95;;;1.10;;
71941;SDS011;59997;53.300;-6.260;2023-01-16T04:04:56;6.10;;;0.95;;
71941;SDS011;59997;53.300;-6.260;2023-01-16T04:07:36;6.03;;;1.55;;
71941;SDS011;59997;53.300;-6.260;2023-01-16T04:10:06;5.88;;;1.17;;
71941;SDS011;59997;53.300;-6.260;2023-01-16T04:12:37;5.80;;;1.25;;
71941;SDS011;59997;53.300;-6.260;2023-01-16T04:15:07;5.97;;;1.27;;
71941;SDS011;59997;53.300;-6.260;2023-01-16T04:17:34;4.88;;;1.10;;
71941;SDS011;59997;53.300;-6.260;2023-01-16T04:20:01;5.22;;;0.82;;
71941;SDS011;59997;53.300;-6.260;2023-01-16T04:22:28;6.68;;;1.17;;
71941;SDS011;59997;53.300;-6.260;2023-01-16T04:24:55;4.35;;;0.73;;
71941;SDS011;59997;53.300;-6.260;2023-01-16T04:27:22;4.80;;;0.77;;
71941;SDS011;59997;53.300;-6.260;2023-01-16T04:29:48;6.18;;;0.85;;
71941;SDS011;59997;53.300;-6.260;2023-01-16T04:32:14;5.07;;;0.82;;
71941;SDS011;59997;53.300;-6.260;2023-01-16T04:34:39;3.83;;;0.60;;
71941;SDS011;59997;53.300;-6.260;2023-01-16T04:37:05;4.00;;;0.50;;
71941;SDS011;59997;53.300;-6.260;2023-01-16T04:39:31;4.50;;;0.77;;
71941;SDS011;59997;53.300;-6.260;2023-01-16T04:41:56;4.25;;;0.65;;
71941;SDS011;59997;53.300;-6.260;2023-01-16T04:44:22;3.47;;;0.50;;
71941;SDS011;59997;53.300;-6.260;2023-01-16T04:46:48;3.63;;;0.50;;
71941;SDS011;59997;53.300;-6.260;2023-01-16T04:49:14;4.80;;;0.70;;
71941;SDS011;59997;53.300;-6.260;2023-01-16T04:51:39;5.40;;;0.90;;
71941;SDS011;59997;53.300;-6.260;2023-01-16T04:54:05;6.75;;;0.70;;
71941;SDS011;59997;53.300;-6.260;2023-01-16T04:56:31;3.97;;;0.70;;
71941;SDS011;59997;53.300;-6.260;2023-01-16T04:58:57;6.20;;;0.75;;
71941;SDS011;59997;53.300;-6.260;2023-01-16T05:01:23;3.63;;;0.60;;
71941;SDS011;59997;53.300;-6.260;2023-01-16T05:03:49;3.60;;;0.50;;
71941;SDS011;59997;53.300;-6.260;2023-01-16T05:06:14;4.63;;;0.60;;
71941;SDS011;59997;53.300;-6.260;2023-01-16T05:08:41;4.60;;;0.60;;
71941;SDS011;59997;53.300;-6.260;2023-01-16T05:11:06;7.70;;;0.45;;
71941;SDS011;59997;53.300;-6.260;2023-01-16T05:13:32;4.40;;;0.40;;
71941;SDS011;59997;53.300;-6.260;2023-01-16T05:15:57;4.50;;;0.50;;
71941;SDS011;59997;53.300;-6.260;2023-01-16T05:18:23;5.53;;;0.90;;
71941;SDS011;59997;53.300;-6.260;2023-01-16T05:20:49;4.53;;;0.47;;
71941;SDS011;59997;53.300;-6.260;2023-01-16T05:23:15;4.30;;;0.57;;
71941;SDS011;59997;53.300;-6.260;2023-01-16T05:25:41;3.05;;;0.40;;
71941;SDS011;59997;53.300;-6.260;2023-01-16T05:28:07;8.40;;;0.57;;
71941;SDS011;59997;53.300;-6.260;2023-01-16T05:30:32;3.70;;;0.50;;
71941;SDS011;59997;53.300;-6.260;2023-01-16T05:32:58;3.53;;;0.43;;
71941;SDS011;59997;53.300;-6.260;2023-01-16T05:35:23;6.00;;;0.80;;
71941;SDS011;59997;53.300;-6.260;2023-01-16T05:37:49;7.93;;;0.77;;
71941;SDS011;59997;53.300;-6.260;2023-01-16T05:40:14;4.93;;;0.80;;
71941;SDS011;59997;53.300;-6.260;2023-01-16T05:42:42;6.13;;;0.90;;
71941;SDS011;59997;53.300;-6.260;2023-01-16T05:45:08;6.47;;;0.93;;
71941;SDS011;59997;53.300;-6.260;2023-01-16T05:47:34;4.93;;;0.60;;
71941;SDS011;59997;53.300;-6.260;2023-01-16T05:50:00;6.05;;;0.80;;
71941;SDS011;59997;53.300;-6.260;2023-01-16T05:52:25;6.03;;;0.90;;
71941;SDS011;59997;53.300;-6.260;2023-01-16T05:54:51;5.87;;;0.80;;
71941;SDS011;59997;53.300;-6.260;2023-01-16T05:57:17;4.07;;;0.70;;
71941;SDS011;59997;53.300;-6.260;2023-01-16T05:59:43;7.45;;;1.35;;
71941;SDS011;59997;53.300;-6.260;2023-01-16T06:02:10;5.85;;;0.90;;
71941;SDS011;59997;53.300;-6.260;2023-01-16T06:04:37;7.10;;;1.00;;
71941;SDS011;59997;53.300;-6.260;2023-01-16T06:07:02;6.30;;;0.90;;
71941;SDS011;59997;53.300;-6.260;2023-01-16T06:09:28;6.53;;;1.03;;
71941;SDS011;59997;53.300;-6.260;2023-01-16T06:11:54;4.53;;;0.80;;
71941;SDS011;59997;53.300;-6.260;2023-01-16T06:14:19;8.47;;;1.10;;
71941;SDS011;59997;53.300;-6.260;2023-01-16T06:16:44;4.70;;;0.80;;
71941;SDS011;59997;53.300;-6.260;2023-01-16T06:19:10;7.27;;;0.70;;
71941;SDS011;59997;53.300;-6.260;2023-01-16T06:21:35;11.43;;;1.42;;
71941;SDS011;59997;53.300;-6.260;2023-01-16T06:24:01;4.73;;;0.90;;
71941;SDS011;59997;53.300;-6.260;2023-01-16T06:26:27;6.55;;;1.13;;
71941;SDS011;59997;53.300;-6.260;2023-01-16T06:28:52;5.23;;;1.00;;
71941;SDS011;59997;53.300;-6.260;2023-01-16T06:31:21;5.40;;;0.95;;
71941;SDS011;59997;53.300;-6.260;2023-01-16T06:33:47;6.82;;;0.77;;
71941;SDS011;59997;53.300;-6.260;2023-01-16T06:36:12;4.57;;;0.93;;
71941;SDS011;59997;53.300;-6.260;2023-01-16T06:38:38;10.20;;;1.17;;
71941;SDS011;59997;53.300;-6.260;2023-01-16T06:41:03;4.88;;;0.80;;
71941;SDS011;59997;53.300;-6.260;2023-01-16T06:43:29;7.10;;;0.93;;
71941;SDS011;59997;53.300;-6.260;2023-01-16T06:45:54;6.70;;;1.00;;
71941;SDS011;59997;53.300;-6.260;2023-01-16T06:48:20;7.93;;;0.90;;
71941;SDS011;59997;53.300;-6.260;2023-01-16T06:50:46;6.00;;;1.10;;
71941;SDS011;59997;53.300;-6.260;2023-01-16T06:53:12;6.35;;;1.13;;
71941;SDS011;59997;53.300;-6.260;2023-01-16T06:55:38;5.50;;;1.30;;
71941;SDS011;59997;53.300;-6.260;2023-01-16T06:58:05;9.07;;;1.90;;
71941;SDS011;59997;53.300;-6.260;2023-01-16T07:00:31;7.75;;;1.67;;
71941;SDS011;59997;53.300;-6.260;2023-01-16T07:02:56;9.37;;;2.03;;
71941;SDS011;59997;53.300;-6.260;2023-01-16T07:05:23;7.40;;;1.73;;
71941;SDS011;59997;53.300;-6.260;2023-01-16T07:07:50;10.15;;;1.83;;
71941;SDS011;59997;53.300;-6.260;2023-01-16T07:10:15;6.43;;;1.40;;
71941;SDS011;59997;53.300;-6.260;2023-01-16T07:12:41;8.90;;;1.25;;
71941;SDS011;59997;53.300;-6.260;2023-01-16T07:15:07;8.10;;;1.67;;
71941;SDS011;59997;53.300;-6.260;2023-01-16T07:17:51;7.63;;;1.23;;
71941;SDS011;59997;53.300;-6.260;2023-01-16T07:20:36;9.23;;;1.55;;
71941;SDS011;59997;53.300;-6.260;2023-01-16T07:23:24;7.00;;;1.13;;
71941;SDS011;59997;53.300;-6.260;2023-01-16T07:25:53;5.43;;;1.45;;
71941;SDS011;59997;53.300;-6.260;2023-01-16T07:28:20;8.13;;;1.77;;
71941;SDS011;59997;53.300;-6.260;2023-01-16T07:30:46;9.57;;;1.38;;
71941;SDS011;59997;53.300;-6.260;2023-01-16T07:33:13;9.23;;;1.00;;
71941;SDS011;59997;53.300;-6.260;2023-01-16T07:35:38;7.45;;;1.35;;
71941;SDS011;59997;53.300;-6.260;2023-01-16T07:38:04;12.20;;;1.53;;
71941;SDS011;59997;53.300;-6.260;2023-01-16T07:40:29;10.87;;;1.53;;
71941;SDS011;59997;53.300;-6.260;2023-01-16T07:42:55;6.35;;;1.58;;
71941;SDS011;59997;53.300;-6.260;2023-01-16T07:45:20;5.73;;;1.00;;
71941;SDS011;59997;53.300;-6.260;2023-01-16T07:47:46;9.00;;;0.97;;
71941;SDS011;59997;53.300;-6.260;2023-01-16T07:50:12;7.75;;;1.40;;
71941;SDS011;59997;53.300;-6.260;2023-01-16T07:52:37;8.90;;;1.33;;
71941;SDS011;59997;53.300;-6.260;2023-01-16T07:55:03;8.02;;;1.13;;
71941;SDS011;59997;53.300;-6.260;2023-01-16T07:57:29;9.93;;;1.23;;
71941;SDS011;59997;53.300;-6.260;2023-01-16T07:59:54;7.60;;;2.70;;
71941;SDS011;59997;53.300;-6.260;2023-01-16T08:02:20;8.03;;;1.90;;
71941;SDS011;59997;53.300;-6.260;2023-01-16T08:04:45;9.77;;;1.10;;
71941;SDS011;59997;53.300;-6.260;2023-01-16T08:07:11;12.45;;;1.33;;
71941;SDS011;59997;53.300;-6.260;2023-01-16T08:09:36;7.67;;;1.60;;
71941;SDS011;59997;53.300;-6.260;2023-01-16T08:12:02;11.03;;;1.60;;
71941;SDS011;59997;53.300;-6.260;2023-01-16T08:14:28;7.15;;;2.15;;
71941;SDS011;59997;53.300;-6.260;2023-01-16T08:16:53;4.93;;;1.13;;
71941;SDS011;59997;53.300;-6.260;2023-01-16T08:19:19;6.03;;;0.80;;
71941;SDS011;59997;53.300;-6.260;2023-01-16T08:21:44;8.70;;;1.80;;
71941;SDS011;59997;53.300;-6.260;2023-01-16T08:24:10;6.37;;;0.90;;
71941;SDS011;59997;53.300;-6.260;2023-01-16T08:26:38;10.20;;;2.70;;
71941;SDS011;59997;53.300;-6.260;2023-01-16T08:29:03;8.68;;;2.38;;
71941;SDS011;59997;53.300;-6.260;2023-01-16T08:31:29;10.30;;;2.20;;
71941;SDS011;59997;53.300;-6.260;2023-01-16T08:33:56;6.10;;;1.60;;
71941;SDS011;59997;53.300;-6.260;2023-01-16T08:36:21;7.63;;;2.35;;
71941;SDS011;59997;53.300;-6.260;2023-01-16T08:38:47;11.68;;;2.15;;
71941;SDS011;59997;53.300;-6.260;2023-01-16T08:41:13;7.33;;;1.50;;
71941;SDS011;59997;53.300;-6.260;2023-01-16T08:43:58;8.48;;;2.03;;
71941;SDS011;59997;53.300;-6.260;2023-01-16T08:46:42;11.10;;;3.35;;
71941;SDS011;59997;53.300;-6.260;2023-01-16T08:49:28;9.48;;;2.63;;
71941;SDS011;59997;53.300;-6.260;2023-01-16T08:52:12;10.32;;;2.22;;
71941;SDS011;59997;53.300;-6.260;2023-01-16T08:54:38;7.43;;;2.53;;
71941;SDS011;59997;53.300;-6.260;2023-01-16T08:57:04;10.02;;;2.05;;
71941;SDS011;59997;53.300;-6.260;2023-01-16T08:59:30;7.97;;;1.67;;
71941;SDS011;59997;53.300;-6.260;2023-01-16T09:01:59;8.00;;;1.80;;
71941;SDS011;59997;53.300;-6.260;2023-01-16T09:04:25;8.77;;;1.67;;
71941;SDS011;59997;53.300;-6.260;2023-01-16T09:06:51;7.77;;;1.47;;
71941;SDS011;59997;53.300;-6.260;2023-01-16T09:09:18;10.43;;;2.15;;
71941;SDS011;59997;53.300;-6.260;2023-01-16T09:11:44;6.93;;;1.65;;
71941;SDS011;59997;53.300;-6.260;2023-01-16T09:14:28;7.90;;;1.53;;
71941;SDS011;59997;53.300;-6.260;2023-01-16T09:16:54;8.65;;;1.33;;
71941;SDS011;59997;53.300;-6.260;2023-01-16T09:19:19;7.83;;;1.53;;
71941;SDS011;59997;53.300;-6.260;2023-01-16T09:21:45;6.40;;;1.40;;
71941;SDS011;59997;53.300;-6.260;2023-01-16T09:24:10;10.77;;;1.33;;
71941;SDS011;59997;53.300;-6.260;2023-01-16T09:26:36;6.07;;;1.20;;
71941;SDS011;59997;53.300;-6.260;2023-01-16T09:29:01;5.80;;;1.03;;
71941;SDS011;59997;53.300;-6.260;2023-01-16T09:31:27;8.15;;;1.50;;
71941;SDS011;59997;53.300;-6.260;2023-01-16T09:33:52;10.20;;;1.52;;
71941;SDS011;59997;53.300;-6.260;2023-01-16T09:36:19;5.03;;;1.20;;
71941;SDS011;59997;53.300;-6.260;2023-01-16T09:38:45;6.40;;;1.08;;
71941;SDS011;59997;53.300;-6.260;2023-01-16T09:41:13;10.27;;;1.23;;
71941;SDS011;59997;53.300;-6.260;2023-01-16T09:44:01;7.18;;;1.10;;
71941;SDS011;59997;53.300;-6.260;2023-01-16T09:46:29;9.57;;;1.30;;
71941;SDS011;59997;53.300;-6.260;2023-01-16T09:49:47;4.53;;;1.00;;
71941;SDS011;59997;53.300;-6.260;2023-01-16T09:52:16;6.25;;;1.10;;
71941;SDS011;59997;53.300;-6.260;2023-01-16T09:55:11;11.70;;;1.47;;
71941;SDS011;59997;53.300;-6.260;2023-01-16T09:58:15;10.70;;;1.70;;
71941;SDS011;59997;53.300;-6.260;2023-01-16T10:03:45;7.32;;;1.75;;
71941;SDS011;59997;53.300;-6.260;2023-01-16T10:14:12;9.43;;;1.85;;
71941;SDS011;59997;53.300;-6.260;2023-01-16T10:19:20;6.00;;;1.42;;
71941;SDS011;59997;53.300;-6.260;2023-01-16T10:30:35;8.07;;;1.25;;
71941;SDS011;59997;53.300;-6.260;2023-01-16T10:33:13;7.93;;;1.70;;
71941;SDS011;59997;53.300;-6.260;2023-01-16T10:35:47;6.80;;;1.75;;
71941;SDS011;59997;53.300;-6.260;2023-01-16T10:41:20;9.77;;;1.92;;
71941;SDS011;59997;53.300;-6.260;2023-01-16T10:44:17;9.80;;;2.20;;
71941;SDS011;59997;53.300;-6.260;2023-01-16T10:47:17;8.40;;;2.13;;
71941;SDS011;59997;53.300;-6.260;2023-01-16T10:50:03;9.73;;;1.70;;
71941;SDS011;59997;53.300;-6.260;2023-01-16T10:52:29;11.10;;;1.92;;
71941;SDS011;59997;53.300;-6.260;2023-01-16T10:54:56;9.85;;;2.13;;
71941;SDS011;59997;53.300;-6.260;2023-01-16T10:57:23;8.50;;;2.30;;
71941;SDS011;59997;53.300;-6.260;2023-01-16T10:59:50;7.37;;;1.63;;
71941;SDS011;59997;53.300;-6.260;2023-01-16T11:02:25;6.32;;;1.65;;
71941;SDS011;59997;53.300;-6.260;2023-01-16T11:04:55;6.87;;;1.40;;
71941;SDS011;59997;53.300;-6.260;2023-01-16T11:07:21;8.90;;;1.35;;
71941;SDS011;59997;53.300;-6.260;2023-01-16T11:09:47;7.05;;;1.17;;
71941;SDS011;59997;53.300;-6.260;2023-01-16T11:15:26;8.60;;;3.08;;
71941;SDS011;59997;53.300;-6.260;2023-01-16T11:18:27;10.35;;;3.53;;
71941;SDS011;59997;53.300;-6.260;2023-01-16T11:20:59;8.45;;;1.70;;
71941;SDS011;59997;53.300;-6.260;2023-01-16T11:23:35;8.90;;;2.05;;
71941;SDS011;59997;53.300;-6.260;2023-01-16T11:26:03;6.60;;;2.70;;
71941;SDS011;59997;53.300;-6.260;2023-01-16T11:28:30;6.95;;;2.35;;
71941;SDS011;59997;53.300;-6.260;2023-01-16T11:31:39;7.32;;;1.70;;
71941;SDS011;59997;53.300;-6.260;2023-01-16T11:33:48;7.03;;;2.30;;
71941;SDS011;59997;53.300;-6.260;2023-01-16T11:36:22;7.45;;;1.70;;
71941;SDS011;59997;53.300;-6.260;2023-01-16T11:38:49;6.40;;;1.60;;
71941;SDS011;59997;53.300;-6.260;2023-01-16T11:41:23;9.40;;;2.17;;
71941;SDS011;59997;53.300;-6.260;2023-01-16T11:46:59;7.07;;;1.42;;
71941;SDS011;59997;53.300;-6.260;2023-01-16T11:49:39;5.18;;;1.13;;
71941;SDS011;59997;53.300;-6.260;2023-01-16T11:52:12;4.63;;;0.80;;
71941;SDS011;59997;53.300;-6.260;2023-01-16T11:54:39;6.13;;;1.02;;
71941;SDS011;59997;53.300;-6.260;2023-01-16T12:11:04;6.47;;;0.80;;
71941;SDS011;59997;53.300;-6.260;2023-01-16T12:30:41;7.45;;;1.15;;
71941;SDS011;59997;53.300;-6.260;2023-01-16T12:33:55;4.10;;;0.82;;
71941;SDS011;59997;53.300;-6.260;2023-01-16T12:39:17;5.38;;;1.13;;
71941;SDS011;59997;53.300;-6.260;2023-01-16T12:47:51;9.00;;;1.67;;
71941;SDS011;59997;53.300;-6.260;2023-01-16T12:50:36;8.13;;;1.92;;
71941;SDS011;59997;53.300;-6.260;2023-01-16T12:58:55;5.40;;;1.00;;
71941;SDS011;59997;53.300;-6.260;2023-01-16T13:01:27;6.28;;;1.02;;
71941;SDS011;59997;53.300;-6.260;2023-01-16T13:04:00;6.22;;;1.10;;
71941;SDS011;59997;53.300;-6.260;2023-01-16T13:06:37;5.80;;;0.85;;
71941;SDS011;59997;53.300;-6.260;2023-01-16T13:09:15;6.80;;;0.97;;
71941;SDS011;59997;53.300;-6.260;2023-01-16T13:12:39;5.57;;;0.80;;
71941;SDS011;59997;53.300;-6.260;2023-01-16T13:15:05;7.28;;;0.70;;
71941;SDS011;59997;53.300;-6.260;2023-01-16T13:20:23;4.50;;;0.60;;
71941;SDS011;59997;53.300;-6.260;2023-01-16T13:22:52;6.35;;;0.82;;
71941;SDS011;59997;53.300;-6.260;2023-01-16T13:30:42;4.75;;;0.50;;
71941;SDS011;59997;53.300;-6.260;2023-01-16T13:33:09;10.27;;;1.20;;
71941;SDS011;59997;53.300;-6.260;2023-01-16T13:36:03;9.43;;;1.05;;
71941;SDS011;59997;53.300;-6.260;2023-01-16T13:41:14;6.70;;;1.33;;
71941;SDS011;59997;53.300;-6.260;2023-01-16T13:46:46;7.20;;;1.05;;
71941;SDS011;59997;53.300;-6.260;2023-01-16T13:49:15;5.25;;;0.50;;
71941;SDS011;59997;53.300;-6.260;2023-01-16T13:51:50;4.22;;;0.63;;
71941;SDS011;59997;53.300;-6.260;2023-01-16T13:54:21;5.43;;;1.20;;
71941;SDS011;59997;53.300;-6.260;2023-01-16T13:56:57;4.22;;;0.55;;
71941;SDS011;59997;53.300;-6.260;2023-01-16T14:13:37;7.45;;;2.08;;
71941;SDS011;59997;53.300;-6.260;2023-01-16T14:16:26;10.23;;;3.17;;
71941;SDS011;59997;53.300;-6.260;2023-01-16T14:23:56;4.97;;;0.82;;
71941;SDS011;59997;53.300;-6.260;2023-01-16T14:29:05;16.80;;;5.45;;
71941;SDS011;59997;53.300;-6.260;2023-01-16T14:31:44;11.73;;;1.55;;
71941;SDS011;59997;53.300;-6.260;2023-01-16T14:34:22;7.30;;;0.95;;
71941;SDS011;59997;53.300;-6.260;2023-01-16T14:36:51;8.38;;;2.03;;
71941;SDS011;59997;53.300;-6.260;2023-01-16T14:39:32;13.20;;;3.37;;
71941;SDS011;59997;53.300;-6.260;2023-01-16T14:42:19;17.13;;;5.50;;
71941;SDS011;59997;53.300;-6.260;2023-01-16T14:48:39;4.93;;;0.60;;
71941;SDS011;59997;53.300;-6.260;2023-01-16T14:50:59;5.93;;;1.83;;
71941;SDS011;59997;53.300;-6.260;2023-01-16T14:56:43;6.47;;;1.13;;
71941;SDS011;59997;53.300;-6.260;2023-01-16T14:59:16;7.18;;;1.30;;
71941;SDS011;59997;53.300;-6.260;2023-01-16T15:02:10;8.35;;;1.80;;
71941;SDS011;59997;53.300;-6.260;2023-01-16T15:04:59;5.72;;;1.10;;
71941;SDS011;59997;53.300;-6.260;2023-01-16T15:10:20;7.15;;;1.52;;
71941;SDS011;59997;53.300;-6.260;2023-01-16T15:12:46;6.43;;;1.10;;
71941;SDS011;59997;53.300;-6.260;2023-01-16T15:15:30;30.95;;;11.60;;
71941;SDS011;59997;53.300;-6.260;2023-01-16T15:17:58;13.13;;;3.40;;
71941;SDS011;59997;53.300;-6.260;2023-01-16T15:20:43;13.27;;;3.80;;
71941;SDS011;59997;53.300;-6.260;2023-01-16T15:23:32;11.05;;;4.30;;
71941;SDS011;59997;53.300;-6.260;2023-01-16T15:26:06;12.65;;;2.83;;
71941;SDS011;59997;53.300;-6.260;2023-01-16T15:33:34;8.75;;;3.20;;
71941;SDS011;59997;53.300;-6.260;2023-01-16T15:36:21;10.82;;;2.33;;
71941;SDS011;59997;53.300;-6.260;2023-01-16T15:41:19;11.93;;;3.50;;
71941;SDS011;59997;53.300;-6.260;2023-01-16T15:44:13;7.47;;;2.75;;
71941;SDS011;59997;53.300;-6.260;2023-01-16T15:47:02;7.60;;;1.70;;
71941;SDS011;59997;53.300;-6.260;2023-01-16T15:52:33;9.73;;;2.28;;
71941;SDS011;59997;53.300;-6.260;2023-01-16T15:57:51;6.82;;;2.08;;
71941;SDS011;59997;53.300;-6.260;2023-01-16T16:03:15;9.52;;;2.15;;
71941;SDS011;59997;53.300;-6.260;2023-01-16T16:05:46;8.98;;;2.67;;
71941;SDS011;59997;53.300;-6.260;2023-01-16T16:08:20;9.23;;;1.90;;
71941;SDS011;59997;53.300;-6.260;2023-01-16T16:10:48;8.13;;;1.80;;
71941;SDS011;59997;53.300;-6.260;2023-01-16T16:13:35;7.85;;;1.98;;
71941;SDS011;59997;53.300;-6.260;2023-01-16T16:16:03;8.32;;;2.40;;
71941;SDS011;59997;53.300;-6.260;2023-01-16T16:18:58;10.52;;;2.67;;
71941;SDS011;59997;53.300;-6.260;2023-01-16T16:21:25;14.18;;;5.25;;
71941;SDS011;59997;53.300;-6.260;2023-01-16T16:24:02;16.58;;;5.22;;
71941;SDS011;59997;53.300;-6.260;2023-01-16T16:26:30;26.63;;;10.60;;
71941;SDS011;59997;53.300;-6.260;2023-01-16T16:28:59;38.22;;;17.80;;
71941;SDS011;59997;53.300;-6.260;2023-01-16T16:31:28;22.02;;;9.48;;
71941;SDS011;59997;53.300;-6.260;2023-01-16T16:34:03;16.10;;;5.30;;
71941;SDS011;59997;53.300;-6.260;2023-01-16T16:36:43;16.95;;;3.90;;
71941;SDS011;59997;53.300;-6.260;2023-01-16T16:41:58;10.65;;;4.35;;
71941;SDS011;59997;53.300;-6.260;2023-01-16T16:44:45;14.38;;;5.47;;
71941;SDS011;59997;53.300;-6.260;2023-01-16T16:47:29;13.02;;;4.45;;
71941;SDS011;59997;53.300;-6.260;2023-01-16T16:49:56;13.55;;;3.88;;
71941;SDS011;59997;53.300;-6.260;2023-01-16T16:52:43;13.70;;;3.95;;
71941;SDS011;59997;53.300;-6.260;2023-01-16T16:55:33;13.30;;;3.85;;
71941;SDS011;59997;53.300;-6.260;2023-01-16T16:57:59;15.23;;;4.25;;
71941;SDS011;59997;53.300;-6.260;2023-01-16T17:00:28;13.70;;;4.33;;
71941;SDS011;59997;53.300;-6.260;2023-01-16T17:03:29;13.32;;;5.68;;
71941;SDS011;59997;53.300;-6.260;2023-01-16T17:05:49;16.42;;;6.07;;
71941;SDS011;59997;53.300;-6.260;2023-01-16T17:08:19;29.25;;;11.63;;
71941;SDS011;59997;53.300;-6.260;2023-01-16T17:10:46;38.67;;;13.85;;
71941;SDS011;59997;53.300;-6.260;2023-01-16T17:13:17;35.47;;;13.05;;
71941;SDS011;59997;53.300;-6.260;2023-01-16T17:15:44;24.02;;;10.63;;
71941;SDS011;59997;53.300;-6.260;2023-01-16T17:18:11;22.92;;;11.35;;
71941;SDS011;59997;53.300;-6.260;2023-01-16T17:20:38;24.15;;;10.13;;
71941;SDS011;59997;53.300;-6.260;2023-01-16T17:23:08;21.88;;;8.98;;
71941;SDS011;59997;53.300;-6.260;2023-01-16T17:25:36;22.77;;;9.20;;
71941;SDS011;59997;53.300;-6.260;2023-01-16T17:28:01;20.45;;;8.65;;
71941;SDS011;59997;53.300;-6.260;2023-01-16T17:30:27;28.43;;;12.03;;
71941;SDS011;59997;53.300;-6.260;2023-01-16T17:32:58;22.92;;;9.55;;
71941;SDS011;59997;53.300;-6.260;2023-01-16T17:35:25;31.00;;;11.65;;
71941;SDS011;59997;53.300;-6.260;2023-01-16T17:37:51;31.93;;;12.57;;
71941;SDS011;59997;53.300;-6.260;2023-01-16T17:40:17;25.90;;;10.55;;
71941;SDS011;59997;53.300;-6.260;2023-01-16T17:42:42;35.10;;;15.00;;
71941;SDS011;59997;53.300;-6.260;2023-01-16T17:45:40;35.72;;;13.88;;
71941;SDS011;59997;53.300;-6.260;2023-01-16T17:48:18;32.03;;;12.35;;
71941;SDS011;59997;53.300;-6.260;2023-01-16T17:50:47;50.92;;;16.30;;
71941;SDS011;59997;53.300;-6.260;2023-01-16T17:53:14;49.53;;;14.30;;
71941;SDS011;59997;53.300;-6.260;2023-01-16T17:55:42;72.40;;;21.65;;
71941;SDS011;59997;53.300;-6.260;2023-01-16T17:58:16;104.75;;;29.02;;
71941;SDS011;59997;53.300;-6.260;2023-01-16T18:01:03;95.10;;;25.90;;
71941;SDS011;59997;53.300;-6.260;2023-01-16T18:03:30;50.00;;;18.20;;